sensor_id;sensor_type;location;lat;lon;timestamp;pressure;altitude;pressure_sealevel;temperature;humidity
39051;BME280;24805;55.852;37.644;2023-05-19T00:04:11;100003.69;;;17.36;60.22
39051;BME280;24805;55.852;37.644;2023-05-19T00:09:15;100002.03;;;17.29;60.10
39051;BME280;24805;55.852;37.644;2023-05-19T00:14:17;100003.28;;;17.19;59.85
39051;BME280;24805;55.852;37.644;2023-05-19T00:19:20;100020.63;;;17.17;60.00
39051;BME280;24805;55.852;37.644;2023-05-19T00:24:23;100010.75;;;17.11;60.00
39051;BME280;24805;55.852;37.644;2023-05-19T00:29:25;100028.69;;;17.10;59.42
39051;BME280;24805;55.852;37.644;2023-05-19T00:34:27;100029.50;;;17.11;59.60
39051;BME280;24805;55.852;37.644;2023-05-19T00:39:29;100033.22;;;17.10;59.42
39051;BME280;24805;55.852;37.644;2023-05-19T00:44:32;100036.31;;;17.00;60.00
39051;BME280;24805;55.852;37.644;2023-05-19T00:49:34;100043.97;;;16.97;60.21
39051;BME280;24805;55.852;37.644;2023-05-19T00:54:37;100040.22;;;16.91;60.14
39051;BME280;24805;55.852;37.644;2023-05-19T00:59:40;100034.47;;;16.87;60.23
39051;BME280;24805;55.852;37.644;2023-05-19T01:04:42;100047.44;;;16.84;59.92
39051;BME280;24805;55.852;37.644;2023-05-19T01:09:46;100055.28;;;16.72;59.86
39051;BME280;24805;55.852;37.644;2023-05-19T01:14:48;100056.47;;;16.63;59.81
39051;BME280;24805;55.852;37.644;2023-05-19T01:19:59;100048.22;;;16.58;59.19
39051;BME280;24805;55.852;37.644;2023-05-19T01:30:28;100066.66;;;16.27;58.71
39051;BME280;24805;55.852;37.644;2023-05-19T01:35:36;100092.28;;;16.01;58.52
39051;BME280;24805;55.852;37.644;2023-05-19T01:40:40;100092.16;;;15.75;57.29
39051;BME280;24805;55.852;37.644;2023-05-19T01:45:43;100095.06;;;15.52;56.67
39051;BME280;24805;55.852;37.644;2023-05-19T01:50:46;100095.13;;;15.31;56.32
39051;BME280;24805;55.852;37.644;2023-05-19T01:55:53;100104.66;;;15.12;56.36
39051;BME280;24805;55.852;37.644;2023-05-19T02:12:00;100116.53;;;14.88;55.58
39051;BME280;24805;55.852;37.644;2023-05-19T02:17:04;100112.75;;;14.76;55.14
39051;BME280;24805;55.852;37.644;2023-05-19T02:22:07;100117.81;;;14.71;55.34
39051;BME280;24805;55.852;37.644;2023-05-19T02:27:09;100107.31;;;14.69;55.46
39051;BME280;24805;55.852;37.644;2023-05-19T02:32:12;100116.81;;;14.72;55.29
39051;BME280;24805;55.852;37.644;2023-05-19T02:37:14;100115.72;;;14.66;54.91
39051;BME280;24805;55.852;37.644;2023-05-19T02:42:17;100120.50;;;14.71;54.69
39051;BME280;24805;55.852;37.644;2023-05-19T02:47:19;100113.75;;;14.75;54.13
39051;BME280;24805;55.852;37.644;2023-05-19T02:52:21;100132.63;;;14.73;54.13
39051;BME280;24805;55.852;37.644;2023-05-19T02:57:23;100130.59;;;14.75;54.63
39051;BME280;24805;55.852;37.644;2023-05-19T03:02:27;100131.75;;;14.88;54.26
39051;BME280;24805;55.852;37.644;2023-05-19T03:07:29;100137.63;;;14.98;54.87
39051;BME280;24805;55.852;37.644;2023-05-19T03:12:32;100130.22;;;15.00;54.59
39051;BME280;24805;55.852;37.644;2023-05-19T03:17:34;100138.28;;;15.06;54.51
39051;BME280;24805;55.852;37.644;2023-05-19T03:22:37;100151.91;;;14.90;54.17
39051;BME280;24805;55.852;37.644;2023-05-19T03:27:39;100149.53;;;15.44;52.59
39051;BME280;24805;55.852;37.644;2023-05-19T03:32:41;100154.13;;;14.87;54.77
39051;BME280;24805;55.852;37.644;2023-05-19T03:37:44;100160.91;;;14.68;55.60
39051;BME280;24805;55.852;37.644;2023-05-19T03:42:47;100159.00;;;14.62;56.20
39051;BME280;24805;55.852;37.644;2023-05-19T03:47:50;100165.63;;;14.66;55.94
39051;BME280;24805;55.852;37.644;2023-05-19T03:53:07;100168.47;;;14.64;55.76
39051;BME280;24805;55.852;37.644;2023-05-19T03:58:14;100176.75;;;14.69;55.89
39051;BME280;24805;55.852;37.644;2023-05-19T04:03:16;100172.16;;;14.78;56.66
39051;BME280;24805;55.852;37.644;2023-05-19T04:08:19;100175.69;;;14.85;55.92
39051;BME280;24805;55.852;37.644;2023-05-19T04:13:21;100181.94;;;14.92;56.47
39051;BME280;24805;55.852;37.644;2023-05-19T04:18:23;100181.94;;;14.92;55.94
39051;BME280;24805;55.852;37.644;2023-05-19T04:23:28;100183.03;;;14.98;56.28
39051;BME280;24805;55.852;37.644;2023-05-19T04:28:30;100181.44;;;15.03;56.41
39051;BME280;24805;55.852;37.644;2023-05-19T04:33:32;100189.00;;;15.00;56.24
39051;BME280;24805;55.852;37.644;2023-05-19T04:38:38;100182.44;;;15.02;56.21
39051;BME280;24805;55.852;37.644;2023-05-19T04:43:42;100192.00;;;14.90;57.03
39051;BME280;24805;55.852;37.644;2023-05-19T04:48:46;100191.44;;;14.95;56.54
39051;BME280;24805;55.852;37.644;2023-05-19T04:53:49;100200.66;;;14.92;57.34
39051;BME280;24805;55.852;37.644;2023-05-19T04:58:53;100192.06;;;14.97;56.95
39051;BME280;24805;55.852;37.644;2023-05-19T05:03:56;100204.53;;;15.11;57.05
39051;BME280;24805;55.852;37.644;2023-05-19T05:09:00;100198.63;;;15.15;57.25
39051;BME280;24805;55.852;37.644;2023-05-19T05:14:05;100193.41;;;15.29;57.50
39051;BME280;24805;55.852;37.644;2023-05-19T05:19:08;100193.28;;;15.37;56.29
39051;BME280;24805;55.852;37.644;2023-05-19T05:24:11;100200.59;;;15.49;56.52
39051;BME280;24805;55.852;37.644;2023-05-19T05:29:18;100206.13;;;15.48;56.57
39051;BME280;24805;55.852;37.644;2023-05-19T05:34:20;100214.72;;;15.43;56.38
39051;BME280;24805;55.852;37.644;2023-05-19T05:39:23;100209.81;;;15.47;56.29
39051;BME280;24805;55.852;37.644;2023-05-19T05:44:26;100214.97;;;15.48;56.27
39051;BME280;24805;55.852;37.644;2023-05-19T05:49:29;100224.91;;;15.55;56.62
39051;BME280;24805;55.852;37.644;2023-05-19T05:54:32;100212.19;;;15.57;56.10
39051;BME280;24805;55.852;37.644;2023-05-19T05:59:34;100219.13;;;15.72;56.30
39051;BME280;24805;55.852;37.644;2023-05-19T06:04:37;100221.69;;;15.87;55.62
39051;BME280;24805;55.852;37.644;2023-05-19T06:09:39;100218.75;;;16.10;55.09
39051;BME280;24805;55.852;37.644;2023-05-19T06:14:43;100224.09;;;16.38;53.85
39051;BME280;24805;55.852;37.644;2023-05-19T06:19:47;100232.81;;;16.60;53.17
39051;BME280;24805;55.852;37.644;2023-05-19T06:24:50;100222.69;;;16.90;52.90
39051;BME280;24805;55.852;37.644;2023-05-19T06:29:53;100224.16;;;17.05;52.33
39051;BME280;24805;55.852;37.644;2023-05-19T06:34:55;100221.72;;;17.23;52.07
39051;BME280;24805;55.852;37.644;2023-05-19T06:39:59;100229.22;;;17.68;52.04
39051;BME280;24805;55.852;37.644;2023-05-19T06:45:01;100225.88;;;17.99;50.48
39051;BME280;24805;55.852;37.644;2023-05-19T06:50:05;100234.34;;;18.09;49.31
39051;BME280;24805;55.852;37.644;2023-05-19T06:55:10;100229.00;;;17.96;48.77
39051;BME280;24805;55.852;37.644;2023-05-19T07:00:12;100233.94;;;18.05;48.77
39051;BME280;24805;55.852;37.644;2023-05-19T07:05:21;100225.75;;;18.71;47.02
39051;BME280;24805;55.852;37.644;2023-05-19T07:10:28;100236.56;;;19.34;45.36
39051;BME280;24805;55.852;37.644;2023-05-19T07:15:31;100241.56;;;19.31;44.48
39051;BME280;24805;55.852;37.644;2023-05-19T07:20:33;100242.41;;;19.24;43.93
39051;BME280;24805;55.852;37.644;2023-05-19T07:25:35;100230.38;;;19.34;43.94
39051;BME280;24805;55.852;37.644;2023-05-19T07:30:38;100248.97;;;19.67;42.79
39051;BME280;24805;55.852;37.644;2023-05-19T07:35:40;100255.06;;;19.80;41.40
39051;BME280;24805;55.852;37.644;2023-05-19T07:40:42;100252.59;;;20.04;40.88
39051;BME280;24805;55.852;37.644;2023-05-19T07:45:44;100255.91;;;20.67;38.65
39051;BME280;24805;55.852;37.644;2023-05-19T07:50:47;100262.69;;;21.78;36.45
39051;BME280;24805;55.852;37.644;2023-05-19T07:55:49;100253.81;;;23.89;31.93
39051;BME280;24805;55.852;37.644;2023-05-19T08:00:52;100248.31;;;26.70;27.49
39051;BME280;24805;55.852;37.644;2023-05-19T08:05:54;100247.47;;;27.67;25.01
39051;BME280;24805;55.852;37.644;2023-05-19T08:10:56;100237.28;;;28.49;23.85
39051;BME280;24805;55.852;37.644;2023-05-19T08:15:58;100248.50;;;29.85;21.47
39051;BME280;24805;55.852;37.644;2023-05-19T08:21:01;100249.47;;;30.57;19.68
39051;BME280;24805;55.852;37.644;2023-05-19T08:26:03;100255.94;;;31.79;18.91
39051;BME280;24805;55.852;37.644;2023-05-19T08:31:06;100258.75;;;32.80;17.71
39051;BME280;24805;55.852;37.644;2023-05-19T08:36:08;100253.94;;;34.02;16.96
39051;BME280;24805;55.852;37.644;2023-05-19T08:41:10;100254.16;;;34.85;14.72
39051;BME280;24805;55.852;37.644;2023-05-19T08:46:13;100251.41;;;37.44;13.62
39051;BME280;24805;55.852;37.644;2023-05-19T08:56:25;100248.16;;;39.58;11.83
39051;BME280;24805;55.852;37.644;2023-05-19T09:01:28;100235.13;;;39.74;11.02
39051;BME280;24805;55.852;37.644;2023-05-19T09:06:31;100229.72;;;40.56;10.80
39051;BME280;24805;55.852;37.644;2023-05-19T09:11:33;100226.00;;;39.74;10.97
39051;BME280;24805;55.852;37.644;2023-05-19T09:16:38;100215.75;;;39.78;10.60
39051;BME280;24805;55.852;37.644;2023-05-19T09:21:41;100211.34;;;40.87;10.24
39051;BME280;24805;55.852;37.644;2023-05-19T09:26:45;100212.16;;;40.37;9.97
39051;BME280;24805;55.852;37.644;2023-05-19T09:31:54;100204.63;;;40.72;10.46
39051;BME280;24805;55.852;37.644;2023-05-19T09:37:01;100210.66;;;39.80;10.08
39051;BME280;24805;55.852;37.644;2023-05-19T09:42:04;100208.41;;;39.54;10.23
39051;BME280;24805;55.852;37.644;2023-05-19T09:47:08;100208.00;;;38.87;11.02
39051;BME280;24805;55.852;37.644;2023-05-19T09:52:14;100203.66;;;39.42;10.86
39051;BME280;24805;55.852;37.644;2023-05-19T09:57:24;100210.28;;;39.93;10.18
39051;BME280;24805;55.852;37.644;2023-05-19T10:02:29;100204.25;;;40.07;9.53
39051;BME280;24805;55.852;37.644;2023-05-19T10:07:33;100203.88;;;40.40;9.49
39051;BME280;24805;55.852;37.644;2023-05-19T10:12:37;100202.47;;;39.99;9.58
39051;BME280;24805;55.852;37.644;2023-05-19T10:17:41;100183.03;;;39.27;10.14
39051;BME280;24805;55.852;37.644;2023-05-19T10:22:44;100175.63;;;38.15;10.13
39051;BME280;24805;55.852;37.644;2023-05-19T10:28:04;100184.56;;;37.01;11.78
39051;BME280;24805;55.852;37.644;2023-05-19T10:33:09;100184.59;;;35.40;12.25
39051;BME280;24805;55.852;37.644;2023-05-19T10:38:40;100173.72;;;35.00;12.96
39051;BME280;24805;55.852;37.644;2023-05-19T10:49:19;100184.25;;;32.81;14.35
39051;BME280;24805;55.852;37.644;2023-05-19T10:54:55;100182.59;;;32.94;14.09
39051;BME280;24805;55.852;37.644;2023-05-19T10:59:50;100187.69;;;30.70;15.86
39051;BME280;24805;55.852;37.644;2023-05-19T11:04:52;100170.72;;;29.96;16.29
39051;BME280;24805;55.852;37.644;2023-05-19T11:09:57;100182.56;;;29.58;16.34
39051;BME280;24805;55.852;37.644;2023-05-19T11:14:59;100181.47;;;29.20;16.70
39051;BME280;24805;55.852;37.644;2023-05-19T11:20:01;100177.69;;;29.55;16.33
39051;BME280;24805;55.852;37.644;2023-05-19T11:25:06;100181.63;;;29.72;16.71
39051;BME280;24805;55.852;37.644;2023-05-19T11:30:10;100195.69;;;29.22;16.48
39051;BME280;24805;55.852;37.644;2023-05-19T11:35:16;100189.22;;;29.46;16.48
39051;BME280;24805;55.852;37.644;2023-05-19T11:40:20;100188.97;;;30.06;15.73
39051;BME280;24805;55.852;37.644;2023-05-19T11:45:30;100204.63;;;30.48;15.49
39051;BME280;24805;55.852;37.644;2023-05-19T11:50:33;100192.69;;;30.39;15.15
39051;BME280;24805;55.852;37.644;2023-05-19T11:55:42;100197.00;;;30.88;14.62
39051;BME280;24805;55.852;37.644;2023-05-19T12:00:45;100190.13;;;30.90;14.84
39051;BME280;24805;55.852;37.644;2023-05-19T12:05:48;100183.47;;;30.96;14.76
39051;BME280;24805;55.852;37.644;2023-05-19T12:10:51;100189.69;;;30.83;14.98
39051;BME280;24805;55.852;37.644;2023-05-19T12:15:58;100188.72;;;30.50;15.32
39051;BME280;24805;55.852;37.644;2023-05-19T12:21:01;100181.13;;;29.31;15.86
39051;BME280;24805;55.852;37.644;2023-05-19T12:26:04;100192.09;;;28.87;16.58
39051;BME280;24805;55.852;37.644;2023-05-19T12:31:06;100188.84;;;28.80;16.23
39051;BME280;24805;55.852;37.644;2023-05-19T12:36:09;100194.19;;;28.41;16.91
39051;BME280;24805;55.852;37.644;2023-05-19T12:41:11;100180.81;;;28.39;16.60
39051;BME280;24805;55.852;37.644;2023-05-19T12:46:13;100194.44;;;28.39;17.37
39051;BME280;24805;55.852;37.644;2023-05-19T12:51:18;100209.81;;;28.15;17.32
39051;BME280;24805;55.852;37.644;2023-05-19T12:56:24;100209.53;;;28.06;17.60
39051;BME280;24805;55.852;37.644;2023-05-19T13:01:28;100196.22;;;27.79;16.66
39051;BME280;24805;55.852;37.644;2023-05-19T13:06:31;100195.94;;;27.45;17.54
39051;BME280;24805;55.852;37.644;2023-05-19T13:11:34;100199.97;;;27.02;17.42
39051;BME280;24805;55.852;37.644;2023-05-19T13:16:36;100192.47;;;26.57;17.72
39051;BME280;24805;55.852;37.644;2023-05-19T13:21:38;100205.88;;;26.22;18.41
39051;BME280;24805;55.852;37.644;2023-05-19T13:26:40;100204.06;;;25.90;19.01
39051;BME280;24805;55.852;37.644;2023-05-19T13:31:43;100205.41;;;25.61;19.41
39051;BME280;24805;55.852;37.644;2023-05-19T13:36:45;100203.50;;;25.56;19.18
39051;BME280;24805;55.852;37.644;2023-05-19T13:41:49;100198.28;;;25.50;19.95
39051;BME280;24805;55.852;37.644;2023-05-19T13:46:51;100195.63;;;25.28;19.87
39051;BME280;24805;55.852;37.644;2023-05-19T13:51:57;100192.78;;;25.13;19.50
39051;BME280;24805;55.852;37.644;2023-05-19T13:56:59;100197.50;;;24.52;20.15
39051;BME280;24805;55.852;37.644;2023-05-19T14:02:01;100196.50;;;24.19;20.69
39051;BME280;24805;55.852;37.644;2023-05-19T14:07:05;100204.13;;;23.84;21.27
39051;BME280;24805;55.852;37.644;2023-05-19T14:12:07;100198.56;;;23.57;21.40
39051;BME280;24805;55.852;37.644;2023-05-19T14:17:13;100187.66;;;23.23;21.65
39051;BME280;24805;55.852;37.644;2023-05-19T14:22:15;100191.59;;;23.16;21.93
39051;BME280;24805;55.852;37.644;2023-05-19T14:27:18;100192.00;;;23.08;22.51
39051;BME280;24805;55.852;37.644;2023-05-19T14:32:21;100194.72;;;23.24;22.46
39051;BME280;24805;55.852;37.644;2023-05-19T14:37:23;100180.47;;;23.46;22.06
39051;BME280;24805;55.852;37.644;2023-05-19T14:42:28;100182.13;;;23.63;21.65
39051;BME280;24805;55.852;37.644;2023-05-19T14:47:30;100185.09;;;23.62;22.23
39051;BME280;24805;55.852;37.644;2023-05-19T14:52:32;100182.69;;;23.49;22.03
39051;BME280;24805;55.852;37.644;2023-05-19T14:57:34;100184.91;;;23.35;22.29
39051;BME280;24805;55.852;37.644;2023-05-19T15:02:37;100181.75;;;23.26;22.60
39051;BME280;24805;55.852;37.644;2023-05-19T15:07:39;100183.31;;;23.22;22.29
39051;BME280;24805;55.852;37.644;2023-05-19T15:12:41;100186.34;;;23.09;23.22
39051;BME280;24805;55.852;37.644;2023-05-19T15:17:44;100182.63;;;22.58;23.41
39051;BME280;24805;55.852;37.644;2023-05-19T15:22:48;100188.25;;;22.17;23.67
39051;BME280;24805;55.852;37.644;2023-05-19T15:27:51;100182.59;;;21.72;23.97
39051;BME280;24805;55.852;37.644;2023-05-19T15:32:53;100194.53;;;21.41;25.06
39051;BME280;24805;55.852;37.644;2023-05-19T15:37:55;100201.81;;;21.10;25.11
39051;BME280;24805;55.852;37.644;2023-05-19T15:42:58;100188.69;;;20.84;25.85
39051;BME280;24805;55.852;37.644;2023-05-19T15:48:00;100194.06;;;20.54;26.17
39051;BME280;24805;55.852;37.644;2023-05-19T15:53:03;100190.16;;;20.32;26.83
39051;BME280;24805;55.852;37.644;2023-05-19T15:58:07;100198.94;;;20.02;27.51
39051;BME280;24805;55.852;37.644;2023-05-19T16:03:09;100208.94;;;19.77;27.80
39051;BME280;24805;55.852;37.644;2023-05-19T16:08:12;100217.13;;;19.64;28.03
39051;BME280;24805;55.852;37.644;2023-05-19T16:13:14;100229.66;;;19.51;28.88
39051;BME280;24805;55.852;37.644;2023-05-19T16:18:16;100233.81;;;19.97;26.29
39051;BME280;24805;55.852;37.644;2023-05-19T16:23:18;100234.75;;;19.84;25.53
39051;BME280;24805;55.852;37.644;2023-05-19T16:28:20;100250.75;;;19.16;29.53
39051;BME280;24805;55.852;37.644;2023-05-19T16:33:26;100230.84;;;18.86;30.00
39051;BME280;24805;55.852;37.644;2023-05-19T16:38:28;100251.72;;;18.84;30.10
39051;BME280;24805;55.852;37.644;2023-05-19T16:43:30;100243.31;;;18.67;31.29
39051;BME280;24805;55.852;37.644;2023-05-19T16:48:34;100264.22;;;18.52;31.07
39051;BME280;24805;55.852;37.644;2023-05-19T16:53:37;100268.38;;;18.41;31.33
39051;BME280;24805;55.852;37.644;2023-05-19T16:58:40;100268.63;;;18.33;31.41
39051;BME280;24805;55.852;37.644;2023-05-19T17:03:42;100275.25;;;18.17;31.74
39051;BME280;24805;55.852;37.644;2023-05-19T17:08:45;100262.03;;;17.83;31.45
39051;BME280;24805;55.852;37.644;2023-05-19T17:13:47;100279.78;;;17.64;32.40
39051;BME280;24805;55.852;37.644;2023-05-19T17:18:49;100294.47;;;17.95;29.06
39051;BME280;24805;55.852;37.644;2023-05-19T17:23:52;100300.31;;;17.17;33.28
39051;BME280;24805;55.852;37.644;2023-05-19T17:28:54;100296.88;;;16.89;33.75
39051;BME280;24805;55.852;37.644;2023-05-19T17:33:56;100306.59;;;16.62;34.18
39051;BME280;24805;55.852;37.644;2023-05-19T17:38:58;100312.88;;;16.41;35.23
39051;BME280;24805;55.852;37.644;2023-05-19T17:44:00;100308.41;;;16.20;35.20
39051;BME280;24805;55.852;37.644;2023-05-19T17:49:04;100321.31;;;16.10;35.54
39051;BME280;24805;55.852;37.644;2023-05-19T17:54:07;100324.66;;;15.91;35.82
39051;BME280;24805;55.852;37.644;2023-05-19T17:59:09;100336.06;;;15.78;36.48
39051;BME280;24805;55.852;37.644;2023-05-19T18:04:12;100334.06;;;15.66;37.17
39051;BME280;24805;55.852;37.644;2023-05-19T18:09:18;100329.19;;;15.55;37.24
39051;BME280;24805;55.852;37.644;2023-05-19T18:14:20;100339.50;;;15.36;37.88
39051;BME280;24805;55.852;37.644;2023-05-19T18:19:22;100344.31;;;15.26;37.74
39051;BME280;24805;55.852;37.644;2023-05-19T18:24:25;100350.50;;;15.12;38.30
39051;BME280;24805;55.852;37.644;2023-05-19T18:29:27;100357.97;;;15.02;38.63
39051;BME280;24805;55.852;37.644;2023-05-19T18:34:29;100356.63;;;14.91;38.85
39051;BME280;24805;55.852;37.644;2023-05-19T18:39:31;100355.81;;;14.76;38.98
39051;BME280;24805;55.852;37.644;2023-05-19T18:44:35;100363.25;;;14.66;39.61
39051;BME280;24805;55.852;37.644;2023-05-19T18:49:37;100359.00;;;14.57;39.85
39051;BME280;24805;55.852;37.644;2023-05-19T18:54:39;100369.13;;;14.46;40.31
39051;BME280;24805;55.852;37.644;2023-05-19T18:59:43;100358.69;;;14.37;40.39
39051;BME280;24805;55.852;37.644;2023-05-19T19:04:45;100364.75;;;14.31;40.60
39051;BME280;24805;55.852;37.644;2023-05-19T19:09:47;100369.47;;;14.21;41.36
39051;BME280;24805;55.852;37.644;2023-05-19T19:14:49;100373.06;;;14.13;41.42
39051;BME280;24805;55.852;37.644;2023-05-19T19:19:52;100374.47;;;14.01;41.54
39051;BME280;24805;55.852;37.644;2023-05-19T19:24:54;100382.56;;;13.93;42.17
39051;BME280;24805;55.852;37.644;2023-05-19T19:29:56;100376.25;;;14.31;38.95
39051;BME280;24805;55.852;37.644;2023-05-19T19:34:59;100382.69;;;13.76;42.57
39051;BME280;24805;55.852;37.644;2023-05-19T19:40:01;100385.25;;;13.62;42.41
39051;BME280;24805;55.852;37.644;2023-05-19T19:45:07;100382.78;;;13.60;43.26
39051;BME280;24805;55.852;37.644;2023-05-19T19:50:10;100392.41;;;13.38;43.30
39051;BME280;24805;55.852;37.644;2023-05-19T19:55:12;100385.63;;;13.28;43.68
39051;BME280;24805;55.852;37.644;2023-05-19T20:00:15;100396.50;;;13.18;44.38
39051;BME280;24805;55.852;37.644;2023-05-19T20:05:17;100404.66;;;13.08;44.21
39051;BME280;24805;55.852;37.644;2023-05-19T20:10:19;100407.53;;;12.99;44.47
39051;BME280;24805;55.852;37.644;2023-05-19T20:15:21;100403.72;;;12.85;44.79
39051;BME280;24805;55.852;37.644;2023-05-19T20:20:23;100404.50;;;13.18;40.68
39051;BME280;24805;55.852;37.644;2023-05-19T20:25:25;100412.44;;;12.71;45.54
39051;BME280;24805;55.852;37.644;2023-05-19T20:30:27;100407.13;;;12.55;45.34
39051;BME280;24805;55.852;37.644;2023-05-19T20:35:30;100410.47;;;12.49;45.64
39051;BME280;24805;55.852;37.644;2023-05-19T20:40:32;100407.16;;;12.38;45.87
39051;BME280;24805;55.852;37.644;2023-05-19T20:45:35;100411.47;;;12.39;46.04
39051;BME280;24805;55.852;37.644;2023-05-19T20:50:38;100420.63;;;12.53;45.92
39051;BME280;24805;55.852;37.644;2023-05-19T20:55:43;100413.94;;;12.73;45.31
39051;BME280;24805;55.852;37.644;2023-05-19T21:00:45;100423.22;;;12.86;44.64
39051;BME280;24805;55.852;37.644;2023-05-19T21:05:47;100423.31;;;13.00;44.52
39051;BME280;24805;55.852;37.644;2023-05-19T21:10:49;100422.47;;;13.55;41.88
39051;BME280;24805;55.852;37.644;2023-05-19T21:15:51;100417.63;;;13.20;44.24
39051;BME280;24805;55.852;37.644;2023-05-19T21:20:53;100421.59;;;13.63;40.53
39051;BME280;24805;55.852;37.644;2023-05-19T21:25:55;100419.78;;;13.24;43.66
39051;BME280;24805;55.852;37.644;2023-05-19T21:30:59;100416.78;;;13.19;43.80
39051;BME280;24805;55.852;37.644;2023-05-19T21:36:01;100418.66;;;13.19;44.35
39051;BME280;24805;55.852;37.644;2023-05-19T21:41:03;100426.41;;;13.67;41.15
39051;BME280;24805;55.852;37.644;2023-05-19T21:46:06;100430.94;;;13.28;44.04
39051;BME280;24805;55.852;37.644;2023-05-19T21:51:08;100431.28;;;13.25;44.38
39051;BME280;24805;55.852;37.644;2023-05-19T21:56:10;100423.28;;;13.25;44.35
39051;BME280;24805;55.852;37.644;2023-05-19T22:01:12;100422.75;;;13.29;44.17
39051;BME280;24805;55.852;37.644;2023-05-19T22:06:15;100406.78;;;13.29;44.63
39051;BME280;24805;55.852;37.644;2023-05-19T22:11:16;100408.97;;;13.79;41.54
39051;BME280;24805;55.852;37.644;2023-05-19T22:16:19;100407.91;;;13.35;44.18
39051;BME280;24805;55.852;37.644;2023-05-19T22:21:21;100416.25;;;13.32;43.98
39051;BME280;24805;55.852;37.644;2023-05-19T22:26:23;100415.44;;;13.31;44.08
39051;BME280;24805;55.852;37.644;2023-05-19T22:31:27;100424.09;;;13.33;44.39
39051;BME280;24805;55.852;37.644;2023-05-19T22:36:29;100428.25;;;13.36;44.11
39051;BME280;24805;55.852;37.644;2023-05-19T22:41:33;100416.75;;;13.35;43.94
39051;BME280;24805;55.852;37.644;2023-05-19T22:46:35;100421.53;;;13.40;44.34
39051;BME280;24805;55.852;37.644;2023-05-19T22:51:37;100409.41;;;13.37;44.63
39051;BME280;24805;55.852;37.644;2023-05-19T22:56:40;100418.03;;;13.39;43.31
39051;BME280;24805;55.852;37.644;2023-05-19T23:01:47;100409.41;;;13.37;43.39
39051;BME280;24805;55.852;37.644;2023-05-19T23:06:49;100403.59;;;13.34;43.35
39051;BME280;24805;55.852;37.644;2023-05-19T23:11:52;100417.09;;;13.32;43.56
39051;BME280;24805;55.852;37.644;2023-05-19T23:16:54;100400.78;;;13.27;44.02
39051;BME280;24805;55.852;37.644;2023-05-19T23:21:56;100412.63;;;13.25;44.25
39051;BME280;24805;55.852;37.644;2023-05-19T23:26:58;100407.38;;;13.70;41.06
39051;BME280;24805;55.852;37.644;2023-05-19T23:32:01;100404.97;;;13.22;43.50
39051;BME280;24805;55.852;37.644;2023-05-19T23:37:04;100412.50;;;13.18;43.50
39051;BME280;24805;55.852;37.644;2023-05-19T23:42:06;100383.84;;;13.04;43.29
39051;BME280;24805;55.852;37.644;2023-05-19T23:47:08;100392.66;;;13.21;43.39
39051;BME280;24805;55.852;37.644;2023-05-19T23:52:10;100401.41;;;13.68;41.68
39051;BME280;24805;55.852;37.644;2023-05-19T23:57:13;100390.16;;;13.19;43.94
